Time,TemperatureF,DewpointF,PressureIn,WindDirection,WindDirectionDegrees,WindSpeedMPH,WindSpeedGustMPH,Humidity,HourlyPrecipIn,Conditions,Clouds,dailyrainin,SoftwareType,DateUTC
2013-02-19 07:24:00,40.2,39.8,0.00,NNE,22,1.4,3.0,98,0.00,,,0.00,WUHU216CR1000,2013-02-19 15:24:00,
2013-02-19 07:29:00,40.2,39.8,0.00,NNE,22,1.4,3.0,98,0.00,,,0.00,WUHU216CR1000,2013-02-19 15:29:00,
2013-02-19 07:34:00,40.3,39.9,0.00,West,259,3.1,10.9,99,0.00,,,0.00,WUHU216CR1000,2013-02-19 15:34:00,
2013-02-19 07:39:00,40.3,39.9,0.00,West,259,3.1,10.9,99,0.00,,,0.00,WUHU216CR1000,2013-02-19 15:39:00,
2013-02-19 07:44:00,40.3,39.9,0.00,West,259,3.1,10.9,99,0.00,,,0.00,WUHU216CR1000,2013-02-19 15:44:00,
2013-02-19 07:49:00,40.7,40.3,0.00,ESE,115,1.0,10.9,99,0.00,,,0.00,WUHU216CR1000,2013-02-19 15:49:00,
2013-02-19 07:54:00,40.7,40.3,0.00,ESE,115,1.0,2.4,99,0.00,,,0.00,WUHU216CR1000,2013-02-19 15:54:00,
2013-02-19 08:02:00,41.3,40.9,0.00,SE,131,0.8,2.7,99,0.00,,,0.00,WUHU216CR1000,2013-02-19 16:02:00,
2013-02-19 08:07:00,41.3,40.9,0.00,SE,131,0.8,2.7,99,0.00,,,0.00,WUHU216CR1000,2013-02-19 16:07:00,
2013-02-19 08:12:00,41.3,40.9,0.00,SE,131,0.8,2.7,99,0.00,,,0.00,WUHU216CR1000,2013-02-19 16:12:00,
2013-02-19 08:17:00,41.8,41.5,0.00,NE,37,1.5,2.7,99,0.00,,,0.00,WUHU216CR1000,2013-02-19 16:17:00,
2013-02-19 08:22:00,41.8,41.5,0.00,NE,37,1.5,2.4,99,0.00,,,0.00,WUHU216CR1000,2013-02-19 16:22:00,
2013-02-19 08:32:00,42.1,41.7,0.00,South,189,2.5,5.5,98,0.00,,,0.00,WUHU216CR1000,2013-02-19 16:32:00,
2013-02-19 08:37:00,42.1,41.7,0.00,South,189,2.5,5.5,98,0.00,,,0.00,WUHU216CR1000,2013-02-19 16:37:00,
2013-02-19 08:42:00,42.1,41.7,0.00,South,189,2.5,5.5,98,0.00,,,0.00,WUHU216CR1000,2013-02-19 16:42:00,
2013-02-19 08:47:00,41.9,41.5,0.00,NNE,25,0.3,5.5,99,0.00,,,0.00,WUHU216CR1000,2013-02-19 16:47:00,
2013-02-19 08:52:00,41.9,41.5,0.00,NNE,25,0.3,1.4,99,0.00,,,0.00,WUHU216CR1000,2013-02-19 16:52:00,
2013-02-19 08:57:00,41.9,41.5,0.00,NNE,25,0.3,1.4,99,0.00,,,0.00,WUHU216CR1000,2013-02-19 16:57:00,
2013-02-19 09:02:00,42.5,42.1,0.00,SW,223,1.3,3.8,98,0.00,,,0.00,WUHU216CR1000,2013-02-19 17:02:00,
2013-02-19 09:07:00,42.5,42.1,0.00,SW,223,1.3,3.8,98,0.00,,,0.00,WUHU216CR1000,2013-02-19 17:07:00,
2013-02-19 09:12:00,42.5,42.1,0.00,SW,223,1.3,3.8,98,0.00,,,0.00,WUHU216CR1000,2013-02-19 17:12:00,
2013-02-19 09:17:00,42.9,42.0,0.00,SW,232,2.0,5.5,97,0.00,,,0.00,WUHU216CR1000,2013-02-19 17:17:00,
2013-02-19 09:22:00,42.9,42.0,0.00,SW,232,2.0,5.5,97,0.00,,,0.00,WUHU216CR1000,2013-02-19 17:22:00,
2013-02-19 09:32:00,43.4,42.0,0.00,SSW,210,1.6,3.9,95,0.00,,,0.00,WUHU216CR1000,2013-02-19 17:32:00,
2013-02-19 09:37:00,43.4,42.0,0.00,SSW,210,1.6,3.9,95,0.00,,,0.00,WUHU216CR1000,2013-02-19 17:37:00,
2013-02-19 09:42:00,43.4,42.0,0.00,SSW,210,1.6,3.9,95,0.00,,,0.00,WUHU216CR1000,2013-02-19 17:42:00,
2013-02-19 09:47:00,44.7,41.7,0.00,SW,221,3.1,6.5,89,0.00,,,0.00,WUHU216CR1000,2013-02-19 17:47:00,
2013-02-19 09:52:00,44.7,41.7,0.00,SW,221,3.1,6.5,89,0.00,,,0.00,WUHU216CR1000,2013-02-19 17:52:00,
2013-02-19 10:02:00,44.8,41.0,0.00,SW,228,3.4,6.9,86,0.00,,,0.00,WUHU216CR1000,2013-02-19 18:02:00,
2013-02-19 10:07:00,44.8,41.0,0.00,SW,228,3.4,6.9,86,0.00,,,0.00,WUHU216CR1000,2013-02-19 18:07:00,
2013-02-19 10:12:00,44.8,41.0,0.00,SW,228,3.4,6.9,86,0.00,,,0.00,WUHU216CR1000,2013-02-19 18:12:00,
2013-02-19 10:17:00,46.3,41.1,0.00,SW,220,3.5,7.5,82,0.00,,,0.00,WUHU216CR1000,2013-02-19 18:17:00,
2013-02-19 10:22:00,46.3,41.1,0.00,SW,220,3.5,7.5,82,0.00,,,0.00,WUHU216CR1000,2013-02-19 18:22:00,
2013-02-19 10:32:00,47.4,40.3,0.00,WSW,250,5.2,11.2,76,0.00,,,0.00,WUHU216CR1000,2013-02-19 18:32:00,
2013-02-19 10:37:00,47.4,40.3,0.00,WSW,250,5.2,11.2,76,0.00,,,0.00,WUHU216CR1000,2013-02-19 18:37:00,
2013-02-19 10:42:00,47.4,40.3,0.00,WSW,250,5.2,11.2,76,0.00,,,0.00,WUHU216CR1000,2013-02-19 18:42:00,
2013-02-19 10:47:00,47.0,40.0,0.00,West,265,3.0,11.2,77,0.00,,,0.00,WUHU216CR1000,2013-02-19 18:47:00,
2013-02-19 10:52:00,47.0,40.0,0.00,West,265,3.0,7.6,77,0.00,,,0.00,WUHU216CR1000,2013-02-19 18:52:00,
2013-02-19 11:02:00,47.0,39.4,0.00,WNW,284,4.0,11.8,75,0.00,,,0.00,WUHU216CR1000,2013-02-19 19:02:00,
2013-02-19 11:07:00,47.0,39.4,0.00,WNW,284,4.0,11.8,75,0.00,,,0.00,WUHU216CR1000,2013-02-19 19:07:00,
2013-02-19 11:12:00,47.0,39.4,0.00,WNW,284,4.0,11.8,75,0.00,,,0.00,WUHU216CR1000,2013-02-19 19:12:00,
2013-02-19 11:17:00,47.0,37.8,0.00,West,272,4.7,12.1,70,0.00,,,0.00,WUHU216CR1000,2013-02-19 19:17:00,
2013-02-19 11:22:00,47.0,37.8,0.00,West,272,4.7,12.1,70,0.00,,,0.00,WUHU216CR1000,2013-02-19 19:22:00,
2013-02-19 11:32:00,47.6,38.1,0.00,WNW,299,6.6,14.3,69,0.00,,,0.00,WUHU216CR1000,2013-02-19 19:32:00,
2013-02-19 11:37:00,47.6,38.1,0.00,WNW,299,6.6,14.3,69,0.00,,,0.00,WUHU216CR1000,2013-02-19 19:37:00,
2013-02-19 11:42:00,47.6,38.1,0.00,WNW,299,6.6,14.3,69,0.00,,,0.00,WUHU216CR1000,2013-02-19 19:42:00,
2013-02-19 11:47:00,47.8,38.0,0.00,NW,314,4.2,15.1,69,0.00,,,0.00,WUHU216CR1000,2013-02-19 19:47:00,
2013-02-19 11:52:00,47.8,38.0,0.00,NW,314,4.2,15.1,69,0.00,,,0.00,WUHU216CR1000,2013-02-19 19:52:00,
2013-02-19 12:02:00,48.2,35.3,0.00,WNW,295,5.9,13.3,61,0.00,,,0.00,WUHU216CR1000,2013-02-19 20:02:00,
2013-02-19 12:07:00,48.2,35.3,0.00,WNW,295,5.9,13.3,61,0.00,,,0.00,WUHU216CR1000,2013-02-19 20:07:00,
2013-02-19 12:12:00,48.2,35.3,0.00,WNW,295,5.9,13.3,61,0.00,,,0.00,WUHU216CR1000,2013-02-19 20:12:00,
2013-02-19 12:17:00,48.8,38.0,0.00,NNW,330,3.9,13.3,66,0.00,,,0.00,WUHU216CR1000,2013-02-19 20:17:00,
2013-02-19 12:22:00,48.8,38.0,0.00,NNW,330,3.9,9.0,66,0.00,,,0.00,WUHU216CR1000,2013-02-19 20:22:00,
2013-02-19 12:27:00,48.8,38.0,0.00,NNW,330,3.9,9.0,66,0.00,,,0.00,WUHU216CR1000,2013-02-19 20:27:00,
2013-02-19 12:32:00,49.0,36.1,0.00,WNW,292,4.7,13.5,61,0.00,,,0.00,WUHU216CR1000,2013-02-19 20:32:00,
2013-02-19 12:37:00,49.0,36.1,0.00,WNW,292,4.7,13.5,61,0.00,,,0.00,WUHU216CR1000,2013-02-19 20:37:00,
2013-02-19 12:42:00,49.0,36.1,0.00,WNW,292,4.7,13.5,61,0.00,,,0.00,WUHU216CR1000,2013-02-19 20:42:00,
2013-02-19 12:47:00,48.4,34.1,0.00,West,277,5.3,13.5,58,0.00,,,0.00,WUHU216CR1000,2013-02-19 20:47:00,
2013-02-19 12:52:00,48.4,34.1,0.00,West,277,5.3,12.9,58,0.00,,,0.00,WUHU216CR1000,2013-02-19 20:52:00,
2013-02-19 12:57:00,48.4,34.1,0.00,West,277,5.3,12.9,58,0.00,,,0.00,WUHU216CR1000,2013-02-19 20:57:00,
2013-02-19 13:02:00,49.3,33.1,0.00,West,260,5.4,12.7,54,0.00,,,0.00,WUHU216CR1000,2013-02-19 21:02:00,
2013-02-19 13:07:00,49.3,33.1,0.00,West,260,5.4,12.7,54,0.00,,,0.00,WUHU216CR1000,2013-02-19 21:07:00,
2013-02-19 13:12:00,49.3,33.1,0.00,West,260,5.4,12.7,54,0.00,,,0.00,WUHU216CR1000,2013-02-19 21:12:00,
2013-02-19 13:17:00,50.1,33.0,0.00,West,264,4.3,12.4,52,0.00,,,0.00,WUHU216CR1000,2013-02-19 21:17:00,
2013-02-19 13:22:00,50.1,33.0,0.00,West,264,4.3,12.4,52,0.00,,,0.00,WUHU216CR1000,2013-02-19 21:22:00,
2013-02-19 13:27:00,50.1,33.0,0.00,West,264,4.3,12.4,52,0.00,,,0.00,WUHU216CR1000,2013-02-19 21:27:00,
2013-02-19 13:32:00,50.2,32.7,0.00,NW,311,6.2,15.0,51,0.00,,,0.00,WUHU216CR1000,2013-02-19 21:32:00,
2013-02-19 13:37:00,50.2,32.7,0.00,NW,311,6.2,15.0,51,0.00,,,0.00,WUHU216CR1000,2013-02-19 21:37:00,
2013-02-19 13:42:00,50.2,32.7,0.00,NW,311,6.2,15.0,51,0.00,,,0.00,WUHU216CR1000,2013-02-19 21:42:00,
2013-02-19 13:47:00,51.3,32.8,0.00,NW,318,7.4,17.3,49,0.00,,,0.00,WUHU216CR1000,2013-02-19 21:47:00,
2013-02-19 13:52:00,51.3,32.8,0.00,NW,318,7.4,17.3,49,0.00,,,0.00,WUHU216CR1000,2013-02-19 21:52:00,
2013-02-19 13:57:00,51.3,32.8,0.00,NW,318,7.4,17.3,49,0.00,,,0.00,WUHU216CR1000,2013-02-19 21:57:00,
2013-02-19 14:02:00,50.9,32.3,0.00,West,271,5.9,14.6,49,0.00,,,0.00,WUHU216CR1000,2013-02-19 22:02:00,
2013-02-19 14:07:00,50.9,32.3,0.00,West,271,5.9,14.6,49,0.00,,,0.00,WUHU216CR1000,2013-02-19 22:07:00,
2013-02-19 14:12:00,50.9,32.3,0.00,West,271,5.9,14.6,49,0.00,,,0.00,WUHU216CR1000,2013-02-19 22:12:00,
2013-02-19 14:17:00,51.8,33.9,0.00,NW,318,7.7,19.2,50,0.00,,,0.00,WUHU216CR1000,2013-02-19 22:17:00,
2013-02-19 14:22:00,51.8,33.9,0.00,NW,318,7.7,19.2,50,0.00,,,0.00,WUHU216CR1000,2013-02-19 22:22:00,
2013-02-19 14:27:00,51.8,33.9,0.00,NW,318,7.7,19.2,50,0.00,,,0.00,WUHU216CR1000,2013-02-19 22:27:00,
2013-02-19 14:32:00,50.7,33.7,0.00,NW,318,8.5,16.2,52,0.00,,,0.00,WUHU216CR1000,2013-02-19 22:32:00,
2013-02-19 14:33:00,50.7,33.7,0.00,NW,318,8.5,16.2,52,0.00,,,0.00,WUHU216CR1000,2013-02-19 22:33:00,
2013-02-19 14:37:00,50.7,33.7,0.00,NW,318,8.5,16.2,52,0.00,,,0.00,WUHU216CR1000,2013-02-19 22:37:00,
2013-02-19 14:42:00,50.7,33.7,0.00,NW,318,8.5,16.2,52,0.00,,,0.00,WUHU216CR1000,2013-02-19 22:42:00,
2013-02-19 14:47:00,49.7,32.0,0.00,NW,313,7.5,14.8,50,0.00,,,0.00,WUHU216CR1000,2013-02-19 22:47:00,
2013-02-19 14:52:00,49.7,32.0,0.00,NW,313,7.5,14.8,50,0.00,,,0.00,WUHU216CR1000,2013-02-19 22:52:00,
2013-02-19 14:57:00,49.7,32.0,0.00,NW,313,7.5,14.8,50,0.00,,,0.00,WUHU216CR1000,2013-02-19 22:57:00,
2013-02-19 15:02:00,50.4,32.7,0.00,NW,310,6.7,15.6,50,0.00,,,0.00,WUHU216CR1000,2013-02-19 23:02:00,
2013-02-19 15:07:00,50.4,32.7,0.00,NW,310,6.7,15.6,50,0.00,,,0.00,WUHU216CR1000,2013-02-19 23:07:00,
2013-02-19 15:12:00,50.4,32.7,0.00,NW,310,6.7,15.6,50,0.00,,,0.00,WUHU216CR1000,2013-02-19 23:12:00,
2013-02-19 15:17:00,50.3,33.4,0.00,WNW,297,6.7,16.8,52,0.00,,,0.00,WUHU216CR1000,2013-02-19 23:17:00,
2013-02-19 15:22:00,50.3,33.4,0.00,WNW,297,6.7,16.8,52,0.00,,,0.00,WUHU216CR1000,2013-02-19 23:22:00,
2013-02-19 15:27:00,50.3,33.4,0.00,WNW,297,6.7,16.8,52,0.00,,,0.00,WUHU216CR1000,2013-02-19 23:27:00,
2013-02-19 15:32:00,48.5,30.0,0.00,NW,305,7.3,17.6,49,0.00,,,0.00,WUHU216CR1000,2013-02-19 23:32:00,
2013-02-19 15:37:00,48.5,30.0,0.00,NW,305,7.3,17.6,49,0.00,,,0.00,WUHU216CR1000,2013-02-19 23:37:00,
2013-02-19 15:42:00,48.5,30.0,0.00,NW,305,7.3,17.6,49,0.00,,,0.00,WUHU216CR1000,2013-02-19 23:42:00,
2013-02-19 15:47:00,48.1,31.2,0.00,NW,310,6.4,12.1,52,0.00,,,0.00,WUHU216CR1000,2013-02-19 23:47:00,
2013-02-19 15:52:00,48.1,31.2,0.00,NW,310,6.4,12.1,52,0.00,,,0.00,WUHU216CR1000,2013-02-19 23:52:00,
2013-02-19 15:57:00,48.1,31.2,0.00,NW,310,6.4,12.1,52,0.00,,,0.00,WUHU216CR1000,2013-02-19 23:57:00,
2013-02-19 16:02:00,48.9,30.6,0.00,NW,321,6.7,17.4,49,0.00,,,0.00,WUHU216CR1000,2013-02-20 00:02:00,
2013-02-19 16:07:00,48.9,30.6,0.00,NW,321,6.7,17.4,49,0.00,,,0.00,WUHU216CR1000,2013-02-20 00:07:00,
2013-02-19 16:12:00,48.9,30.6,0.00,NW,321,6.7,17.4,49,0.00,,,0.00,WUHU216CR1000,2013-02-20 00:12:00,
2013-02-19 16:17:00,48.3,29.9,0.00,WNW,301,5.2,10.7,49,0.00,,,0.00,WUHU216CR1000,2013-02-20 00:17:00,
2013-02-19 16:22:00,48.3,29.9,0.00,WNW,301,5.2,10.7,49,0.00,,,0.00,WUHU216CR1000,2013-02-20 00:22:00,
2013-02-19 16:27:00,48.3,29.9,0.00,WNW,301,5.2,10.7,49,0.00,,,0.00,WUHU216CR1000,2013-02-20 00:27:00,
2013-02-19 16:32:00,48.5,30.6,0.00,WNW,288,6.9,15.4,50,0.00,,,0.00,WUHU216CR1000,2013-02-20 00:32:00,
2013-02-19 16:37:00,48.5,30.6,0.00,WNW,288,6.9,15.4,50,0.00,,,0.00,WUHU216CR1000,2013-02-20 00:37:00,
2013-02-19 16:42:00,48.5,30.6,0.00,WNW,288,6.9,15.4,50,0.00,,,0.00,WUHU216CR1000,2013-02-20 00:42:00,
2013-02-19 16:47:00,47.3,31.8,0.00,WNW,291,6.2,14.9,55,0.00,,,0.00,WUHU216CR1000,2013-02-20 00:47:00,
2013-02-19 16:52:00,47.3,31.8,0.00,WNW,291,6.2,14.9,55,0.00,,,0.00,WUHU216CR1000,2013-02-20 00:52:00,
2013-02-19 16:57:00,47.3,31.8,0.00,WNW,291,6.2,14.9,55,0.00,,,0.00,WUHU216CR1000,2013-02-20 00:57:00,
2013-02-19 17:02:00,46.9,31.1,0.00,WNW,296,6.2,15.1,54,0.00,,,0.00,WUHU216CR1000,2013-02-20 01:02:00,
2013-02-19 17:07:00,46.9,31.1,0.00,WNW,296,6.2,15.1,54,0.00,,,0.00,WUHU216CR1000,2013-02-20 01:07:00,
2013-02-19 17:12:00,46.9,31.1,0.00,WNW,296,6.2,15.1,54,0.00,,,0.00,WUHU216CR1000,2013-02-20 01:12:00,
2013-02-19 17:17:00,46.0,32.8,0.00,West,278,3.5,8.8,60,0.00,,,0.00,WUHU216CR1000,2013-02-20 01:17:00,
2013-02-19 17:22:00,46.0,32.8,0.00,West,278,3.5,8.8,60,0.00,,,0.00,WUHU216CR1000,2013-02-20 01:22:00,
2013-02-19 17:27:00,46.0,32.8,0.00,West,278,3.5,8.8,60,0.00,,,0.00,WUHU216CR1000,2013-02-20 01:27:00,
2013-02-19 17:32:00,45.2,33.3,0.00,West,274,3.4,8.6,63,0.00,,,0.00,WUHU216CR1000,2013-02-20 01:32:00,
2013-02-19 17:37:00,45.2,33.3,0.00,West,274,3.4,8.6,63,0.00,,,0.00,WUHU216CR1000,2013-02-20 01:37:00,
2013-02-19 17:42:00,45.2,33.3,0.00,West,274,3.4,8.6,63,0.00,,,0.00,WUHU216CR1000,2013-02-20 01:42:00,
2013-02-19 17:47:00,44.6,33.2,0.00,WNW,283,2.6,6.9,64,0.00,,,0.00,WUHU216CR1000,2013-02-20 01:47:00,
2013-02-19 17:52:00,44.6,33.2,0.00,WNW,283,2.6,6.9,64,0.00,,,0.00,WUHU216CR1000,2013-02-20 01:52:00,
2013-02-19 17:57:00,44.6,33.2,0.00,WNW,283,2.6,6.9,64,0.00,,,0.00,WUHU216CR1000,2013-02-20 01:57:00,
2013-02-19 18:02:00,43.5,33.3,0.00,WNW,295,2.3,6.7,67,0.00,,,0.00,WUHU216CR1000,2013-02-20 02:02:00,
2013-02-19 18:07:00,43.5,33.3,0.00,WNW,295,2.3,6.7,67,0.00,,,0.00,WUHU216CR1000,2013-02-20 02:07:00,
2013-02-19 18:12:00,43.5,33.3,0.00,WNW,295,2.3,6.7,67,0.00,,,0.00,WUHU216CR1000,2013-02-20 02:12:00,
2013-02-19 18:17:00,43.0,31.8,0.00,WNW,297,3.9,11.7,64,0.00,,,0.00,WUHU216CR1000,2013-02-20 02:17:00,
2013-02-19 18:22:00,43.0,31.8,0.00,WNW,297,3.9,11.7,64,0.00,,,0.00,WUHU216CR1000,2013-02-20 02:22:00,
2013-02-19 18:27:00,43.0,31.8,0.00,WNW,297,3.9,11.7,64,0.00,,,0.00,WUHU216CR1000,2013-02-20 02:27:00,
2013-02-19 18:32:00,42.8,30.6,0.00,NW,305,4.1,7.8,62,0.00,,,0.00,WUHU216CR1000,2013-02-20 02:32:00,
2013-02-19 18:37:00,42.8,30.6,0.00,NW,305,4.1,7.8,62,0.00,,,0.00,WUHU216CR1000,2013-02-20 02:37:00,
2013-02-19 18:42:00,42.8,30.6,0.00,NW,305,4.1,7.8,62,0.00,,,0.00,WUHU216CR1000,2013-02-20 02:42:00,
2013-02-19 18:47:00,42.3,30.2,0.00,NW,312,3.9,6.7,62,0.00,,,0.00,WUHU216CR1000,2013-02-20 02:47:00,
2013-02-19 18:52:00,42.3,30.2,0.00,NW,312,3.9,6.7,62,0.00,,,0.00,WUHU216CR1000,2013-02-20 02:52:00,
2013-02-19 18:57:00,42.3,30.2,0.00,NW,312,3.9,6.7,62,0.00,,,0.00,WUHU216CR1000,2013-02-20 02:57:00,
2013-02-19 19:02:00,42.2,30.3,0.00,WNW,299,4.1,7.5,63,0.00,,,0.00,WUHU216CR1000,2013-02-20 03:02:00,
2013-02-19 19:07:00,42.2,30.3,0.00,WNW,299,4.1,7.5,63,0.00,,,0.00,WUHU216CR1000,2013-02-20 03:07:00,
2013-02-19 19:12:00,42.2,30.3,0.00,WNW,299,4.1,7.5,63,0.00,,,0.00,WUHU216CR1000,2013-02-20 03:12:00,
2013-02-19 19:17:00,42.3,30.6,0.00,WNW,294,4.6,9.8,63,0.00,,,0.00,WUHU216CR1000,2013-02-20 03:17:00,
2013-02-19 19:22:00,42.3,30.6,0.00,WNW,294,4.6,9.8,63,0.00,,,0.00,WUHU216CR1000,2013-02-20 03:22:00,
2013-02-19 19:27:00,42.3,30.6,0.00,WNW,294,4.6,9.8,63,0.00,,,0.00,WUHU216CR1000,2013-02-20 03:27:00,
2013-02-19 19:32:00,41.7,31.4,0.00,WNW,295,5.4,11.2,67,0.00,,,0.00,WUHU216CR1000,2013-02-20 03:32:00,
2013-02-19 19:37:00,41.7,31.4,0.00,WNW,295,5.4,11.2,67,0.00,,,0.00,WUHU216CR1000,2013-02-20 03:37:00,
2013-02-19 19:42:00,41.7,31.4,0.00,WNW,295,5.4,11.2,67,0.00,,,0.00,WUHU216CR1000,2013-02-20 03:42:00,
2013-02-19 19:47:00,41.8,31.4,0.00,NW,307,4.9,8.2,66,0.00,,,0.00,WUHU216CR1000,2013-02-20 03:47:00,
2013-02-19 19:52:00,41.8,31.4,0.00,NW,307,4.9,8.2,66,0.00,,,0.00,WUHU216CR1000,2013-02-20 03:52:00,
2013-02-19 19:57:00,41.8,31.4,0.00,NW,307,4.9,8.2,66,0.00,,,0.00,WUHU216CR1000,2013-02-20 03:57:00,
2013-02-19 20:02:00,41.5,31.5,0.00,WNW,298,5.8,10.2,67,0.00,,,0.00,WUHU216CR1000,2013-02-20 04:02:00,
2013-02-19 20:07:00,41.5,31.5,0.00,WNW,298,5.8,10.2,67,0.00,,,0.00,WUHU216CR1000,2013-02-20 04:07:00,
2013-02-19 20:12:00,41.5,31.5,0.00,WNW,298,5.8,10.2,67,0.00,,,0.00,WUHU216CR1000,2013-02-20 04:12:00,
2013-02-19 20:17:00,41.1,31.6,0.00,NW,315,4.0,8.1,69,0.00,,,0.00,WUHU216CR1000,2013-02-20 04:17:00,
2013-02-19 20:22:00,41.1,31.6,0.00,NW,315,4.0,8.1,69,0.00,,,0.00,WUHU216CR1000,2013-02-20 04:22:00,
2013-02-19 20:27:00,41.1,31.6,0.00,NW,315,4.0,8.1,69,0.00,,,0.00,WUHU216CR1000,2013-02-20 04:27:00,
2013-02-19 20:32:00,40.4,31.7,0.00,WNW,288,2.8,6.8,71,0.00,,,0.00,WUHU216CR1000,2013-02-20 04:32:00,
2013-02-19 20:37:00,40.4,31.7,0.00,WNW,288,2.8,6.8,71,0.00,,,0.00,WUHU216CR1000,2013-02-20 04:37:00,
2013-02-19 20:42:00,40.4,31.7,0.00,WNW,288,2.8,6.8,71,0.00,,,0.00,WUHU216CR1000,2013-02-20 04:42:00,
2013-02-19 20:47:00,40.4,31.7,0.00,WSW,252,0.9,3.5,71,0.00,,,0.00,WUHU216CR1000,2013-02-20 04:47:00,
2013-02-19 20:52:00,40.4,31.7,0.00,WSW,252,0.9,3.5,71,0.00,,,0.00,WUHU216CR1000,2013-02-20 04:52:00,
2013-02-19 20:57:00,40.4,31.7,0.00,WSW,252,0.9,3.5,71,0.00,,,0.00,WUHU216CR1000,2013-02-20 04:57:00,
2013-02-19 21:02:00,39.8,31.6,0.00,West,278,0.9,4.4,72,0.00,,,0.00,WUHU216CR1000,2013-02-20 05:02:00,
2013-02-19 21:07:00,39.8,31.6,0.00,West,278,0.9,4.4,72,0.00,,,0.00,WUHU216CR1000,2013-02-20 05:07:00,
2013-02-19 21:12:00,39.8,31.6,0.00,West,278,0.9,4.4,72,0.00,,,0.00,WUHU216CR1000,2013-02-20 05:12:00,
2013-02-19 21:17:00,40.4,31.7,0.00,West,278,2.4,4.6,71,0.00,,,0.00,WUHU216CR1000,2013-02-20 05:17:00,
2013-02-19 21:22:00,40.4,31.7,0.00,West,278,2.4,4.6,71,0.00,,,0.00,WUHU216CR1000,2013-02-20 05:22:00,
2013-02-19 21:27:00,40.4,31.7,0.00,West,278,2.4,4.6,71,0.00,,,0.00,WUHU216CR1000,2013-02-20 05:27:00,
2013-02-19 21:32:00,39.3,31.8,0.00,WNW,282,2.0,5.7,74,0.00,,,0.00,WUHU216CR1000,2013-02-20 05:32:00,
2013-02-19 21:37:00,39.3,31.8,0.00,WNW,282,2.0,5.7,74,0.00,,,0.00,WUHU216CR1000,2013-02-20 05:37:00,
2013-02-19 21:42:00,39.3,31.8,0.00,WNW,282,2.0,5.7,74,0.00,,,0.00,WUHU216CR1000,2013-02-20 05:42:00,
2013-02-19 21:47:00,37.8,31.5,0.00,ESE,108,1.2,3.3,78,0.00,,,0.00,WUHU216CR1000,2013-02-20 05:47:00,
2013-02-19 21:52:00,37.8,31.5,0.00,ESE,108,1.2,3.3,78,0.00,,,0.00,WUHU216CR1000,2013-02-20 05:52:00,
2013-02-19 21:57:00,37.8,31.5,0.00,ESE,108,1.2,3.3,78,0.00,,,0.00,WUHU216CR1000,2013-02-20 05:57:00,
2013-02-19 22:02:00,36.8,31.7,0.00,West,280,1.0,3.3,82,0.00,,,0.00,WUHU216CR1000,2013-02-20 06:02:00,
2013-02-19 22:07:00,36.8,31.7,0.00,West,280,1.0,3.3,82,0.00,,,0.00,WUHU216CR1000,2013-02-20 06:07:00,
2013-02-19 22:12:00,36.8,31.7,0.00,West,280,1.0,3.3,82,0.00,,,0.00,WUHU216CR1000,2013-02-20 06:12:00,
2013-02-19 22:17:00,37.6,32.0,0.00,WNW,282,2.5,5.5,80,0.00,,,0.00,WUHU216CR1000,2013-02-20 06:17:00,
2013-02-19 22:22:00,37.6,32.0,0.00,WNW,282,2.5,5.5,80,0.00,,,0.00,WUHU216CR1000,2013-02-20 06:22:00,
2013-02-19 22:27:00,37.6,32.0,0.00,WNW,282,2.5,5.5,80,0.00,,,0.00,WUHU216CR1000,2013-02-20 06:27:00,
2013-02-19 22:32:00,38.1,31.8,0.00,WNW,287,1.7,5.2,78,0.00,,,0.00,WUHU216CR1000,2013-02-20 06:32:00,
2013-02-19 22:33:00,38.1,31.8,0.00,WNW,287,1.7,5.2,78,0.00,,,0.00,WUHU216CR1000,2013-02-20 06:33:00,
2013-02-19 22:37:00,38.1,31.8,0.00,WNW,287,1.7,5.2,78,0.00,,,0.00,WUHU216CR1000,2013-02-20 06:37:00,
2013-02-19 22:42:00,38.1,31.8,0.00,WNW,287,1.7,5.2,78,0.00,,,0.00,WUHU216CR1000,2013-02-20 06:42:00,
2013-02-19 22:47:00,38.6,31.6,0.00,West,276,2.2,4.1,76,0.00,,,0.00,WUHU216CR1000,2013-02-20 06:47:00,
2013-02-19 22:52:00,38.6,31.6,0.00,West,276,2.2,4.1,76,0.00,,,0.00,WUHU216CR1000,2013-02-20 06:52:00,
2013-02-19 22:57:00,38.6,31.6,0.00,West,276,2.2,4.1,76,0.00,,,0.00,WUHU216CR1000,2013-02-20 06:57:00,
2013-02-19 23:02:00,39.2,31.5,0.00,WNW,295,1.8,4.2,74,0.00,,,0.00,WUHU216CR1000,2013-02-20 07:02:00,
2013-02-19 23:07:00,39.2,31.5,0.00,WNW,295,1.8,4.2,74,0.00,,,0.00,WUHU216CR1000,2013-02-20 07:07:00,
2013-02-19 23:12:00,39.2,31.5,0.00,WNW,295,1.8,4.2,74,0.00,,,0.00,WUHU216CR1000,2013-02-20 07:12:00,
2013-02-19 23:17:00,37.4,30.7,0.00,NNW,337,1.3,3.6,77,0.00,,,0.00,WUHU216CR1000,2013-02-20 07:17:00,
2013-02-19 23:22:00,37.4,30.7,0.00,NNW,337,1.3,3.6,77,0.00,,,0.00,WUHU216CR1000,2013-02-20 07:22:00,
2013-02-19 23:27:00,37.4,30.7,0.00,NNW,337,1.3,3.6,77,0.00,,,0.00,WUHU216CR1000,2013-02-20 07:27:00,
2013-02-19 23:32:00,35.7,31.1,0.00,WSW,246,0.5,1.8,83,0.00,,,0.00,WUHU216CR1000,2013-02-20 07:32:00,
2013-02-19 23:37:00,35.7,31.1,0.00,WSW,246,0.5,1.8,83,0.00,,,0.00,WUHU216CR1000,2013-02-20 07:37:00,
2013-02-19 23:42:00,35.7,31.1,0.00,WSW,246,0.5,1.8,83,0.00,,,0.00,WUHU216CR1000,2013-02-20 07:42:00,
2013-02-19 23:47:00,35.9,31.7,0.00,NW,316,1.1,2.5,85,0.00,,,0.00,WUHU216CR1000,2013-02-20 07:47:00,
2013-02-19 23:52:00,35.9,31.7,0.00,NW,316,1.1,2.5,85,0.00,,,0.00,WUHU216CR1000,2013-02-20 07:52:00,
2013-02-19 23:57:00,35.9,31.7,0.00,NW,316,1.1,2.5,85,0.00,,,0.00,WUHU216CR1000,2013-02-20 07:57:00,